createdAt,value
2019-04-16T00:02:38.596Z,101360.13
2019-04-16T00:05:16.017Z,101364.41
2019-04-16T00:07:58.041Z,101357.28
2019-04-16T00:10:46.658Z,101352.93
2019-04-16T00:13:29.903Z,101355.86
2019-04-16T00:16:01.406Z,101354.91
2019-04-16T00:18:32.214Z,101348.02
2019-04-16T00:21:38.499Z,101338.61
2019-04-16T00:24:37.366Z,101338.80
2019-04-16T00:27:08.478Z,101335.45
2019-04-16T00:29:39.945Z,101333.41
2019-04-16T00:32:20.389Z,101322.42
2019-04-16T00:34:51.355Z,101328.73
2019-04-16T00:37:22.249Z,101331.09
2019-04-16T00:39:56.045Z,101330.70
2019-04-16T00:42:26.738Z,101328.66
2019-04-16T00:44:57.883Z,101320.81
2019-04-16T00:47:28.825Z,101326.95
2019-04-16T00:50:00.095Z,101325.25
2019-04-16T00:52:31.153Z,101323.58
2019-04-16T00:55:02.173Z,101316.46
2019-04-16T00:57:33.117Z,101311.87
2019-04-16T01:00:04.253Z,101310.77
2019-04-16T01:02:35.298Z,101308.89
2019-04-16T01:05:06.502Z,101311.25
2019-04-16T01:07:37.411Z,101309.01
2019-04-16T01:10:08.380Z,101312.38
2019-04-16T01:12:39.285Z,101310.81
2019-04-16T01:15:10.187Z,101308.05
2019-04-16T01:17:41.118Z,101304.61
2019-04-16T01:20:13.115Z,101298.41
2019-04-16T01:22:46.850Z,101302.67
2019-04-16T01:25:17.020Z,101301.95
2019-04-16T01:27:52.169Z,101303.78
2019-04-16T01:30:41.947Z,101303.52
2019-04-16T01:33:22.208Z,101299.94
2019-04-16T01:35:59.757Z,101296.58
2019-04-16T01:38:36.364Z,101297.97
2019-04-16T01:41:10.072Z,101297.03
2019-04-16T01:43:41.215Z,101301.36
2019-04-16T01:46:12.113Z,101290.69
2019-04-16T01:48:43.176Z,101289.17
2019-04-16T01:51:15.398Z,101293.35
2019-04-16T01:53:49.241Z,101293.41
2019-04-16T01:56:19.326Z,101283.48
2019-04-16T01:58:50.277Z,101286.41
2019-04-16T02:01:22.367Z,101279.48
2019-04-16T02:03:53.266Z,101281.16
2019-04-16T02:06:25.939Z,101278.44
2019-04-16T02:09:01.765Z,101276.38
2019-04-16T02:11:29.456Z,101272.37
2019-04-16T02:14:00.732Z,101276.22
2019-04-16T02:16:31.790Z,101271.16
2019-04-16T02:19:02.873Z,101275.60
2019-04-16T02:21:33.849Z,101268.88
2019-04-16T02:24:04.801Z,101267.59
2019-04-16T02:26:35.817Z,101271.25
2019-04-16T02:29:06.856Z,101266.31
2019-04-16T02:31:37.725Z,101264.22
2019-04-16T02:34:11.753Z,101259.76
2019-04-16T02:36:42.839Z,101259.22
2019-04-16T02:39:14.112Z,101262.88
2019-04-16T02:41:45.092Z,101256.33
2019-04-16T02:44:17.024Z,101256.41
2019-04-16T02:46:48.055Z,101256.81
2019-04-16T02:49:23.215Z,101249.35
2019-04-16T02:52:14.855Z,101249.52
2019-04-16T02:55:07.672Z,101247.23
2019-04-16T02:57:59.502Z,101249.97
2019-04-16T03:00:58.163Z,101254.53
2019-04-16T03:03:34.746Z,101247.75
2019-04-16T03:06:06.213Z,101242.41
2019-04-16T03:08:37.162Z,101243.61
2019-04-16T03:11:08.251Z,101242.83
2019-04-16T03:13:39.184Z,101243.79
2019-04-16T03:16:20.848Z,101245.98
2019-04-16T03:18:59.126Z,101244.64
2019-04-16T03:21:30.145Z,101237.95
2019-04-16T03:24:01.070Z,101234.52
2019-04-16T03:26:31.965Z,101232.60
2019-04-16T03:29:03.295Z,101229.61
2019-04-16T03:31:34.302Z,101226.13
2019-04-16T03:34:06.530Z,101230.16
2019-04-16T03:36:37.669Z,101225.14
2019-04-16T03:39:12.279Z,101230.16
2019-04-16T03:41:41.144Z,101223.48
2019-04-16T03:44:12.016Z,101228.39
2019-04-16T03:46:46.313Z,101220.34
2019-04-16T03:49:15.309Z,101213.50
2019-04-16T03:51:46.472Z,101222.91
2019-04-16T03:54:18.866Z,101216.83
2019-04-16T03:56:50.968Z,101211.92
2019-04-16T03:59:22.056Z,101211.06
2019-04-16T04:01:53.051Z,101210.13
2019-04-16T04:04:28.967Z,101208.94
2019-04-16T04:06:56.537Z,101211.22
2019-04-16T04:09:27.332Z,101215.05
2019-04-16T04:11:58.609Z,101211.77
2019-04-16T04:14:29.558Z,101208.33
2019-04-16T04:17:05.355Z,101206.02
2019-04-16T04:19:33.184Z,101201.19
2019-04-16T04:22:04.184Z,101204.59
2019-04-16T04:24:35.096Z,101199.30
2019-04-16T04:27:06.412Z,101201.64
2019-04-16T04:29:37.725Z,101199.36
2019-04-16T04:32:08.769Z,101202.55
2019-04-16T04:34:39.577Z,101205.21
2019-04-16T04:37:10.412Z,101198.12
2019-04-16T04:39:44.126Z,101202.13
2019-04-16T04:42:14.176Z,101205.34
2019-04-16T04:44:46.945Z,101203.17
2019-04-16T04:47:19.290Z,101205.86
2019-04-16T04:49:50.479Z,101205.05
2019-04-16T04:52:21.512Z,101209.33
2019-04-16T04:54:54.136Z,101211.17
2019-04-16T04:57:25.495Z,101208.62
2019-04-16T04:59:56.411Z,101205.86
2019-04-16T05:02:27.401Z,101205.78
2019-04-16T05:05:04.287Z,101211.17
2019-04-16T05:07:35.213Z,101213.31
2019-04-16T05:10:07.447Z,101217.66
2019-04-16T05:12:38.920Z,101221.27
2019-04-16T05:15:09.635Z,101219.39
2019-04-16T05:17:40.297Z,101214.91
2019-04-16T05:20:14.852Z,101210.57
2019-04-16T05:22:44.287Z,101216.57
2019-04-16T05:25:15.297Z,101220.89
2019-04-16T05:27:46.323Z,101221.60
2019-04-16T05:30:21.072Z,101225.59
2019-04-16T05:32:51.560Z,101224.27
2019-04-16T05:35:22.642Z,101218.72
2019-04-16T05:37:53.729Z,101219.05
2019-04-16T05:40:28.232Z,101219.07
2019-04-16T05:42:58.998Z,101218.52
2019-04-16T05:45:30.245Z,101221.97
2019-04-16T05:48:01.190Z,101223.73
2019-04-16T05:50:32.140Z,101222.12
2019-04-16T05:53:05.394Z,101220.73
2019-04-16T05:55:50.628Z,101226.13
2019-04-16T05:58:21.653Z,101221.14
2019-04-16T06:01:17.734Z,101224.05
2019-04-16T06:03:52.830Z,101228.41
2019-04-16T06:06:21.814Z,101228.27
2019-04-16T06:08:56.016Z,101229.84
2019-04-16T06:11:29.176Z,101227.70
2019-04-16T06:14:06.603Z,101226.22
2019-04-16T06:16:56.971Z,101225.97
2019-04-16T06:20:05.799Z,101223.28
2019-04-16T06:22:55.359Z,101220.37
2019-04-16T06:25:29.495Z,101224.29
2019-04-16T06:28:19.302Z,101226.13
2019-04-16T06:30:59.253Z,101224.53
2019-04-16T06:33:52.248Z,101220.74
2019-04-16T06:36:48.067Z,101220.41
2019-04-16T06:39:36.917Z,101222.18
2019-04-16T06:42:11.233Z,101225.95
2019-04-16T06:44:50.614Z,101221.38
2019-04-16T06:47:30.271Z,101221.94
2019-04-16T06:50:30.708Z,101217.73
2019-04-16T06:53:05.270Z,101219.41
2019-04-16T06:55:43.034Z,101213.98
2019-04-16T06:58:18.900Z,101214.22
2019-04-16T07:01:09.006Z,101215.27
2019-04-16T07:03:59.969Z,101204.95
2019-04-16T07:06:50.989Z,101209.18
2019-04-16T07:09:40.847Z,101203.20
2019-04-16T07:12:10.361Z,101202.19
2019-04-16T07:14:41.480Z,101203.64
2019-04-16T07:17:12.639Z,101201.42
2019-04-16T07:19:43.847Z,101194.61
2019-04-16T07:22:20.777Z,101190.38
2019-04-16T07:24:49.983Z,101189.31
2019-04-16T07:27:21.441Z,101194.83
2019-04-16T07:29:57.913Z,101191.91
2019-04-16T07:32:54.469Z,101200.63
2019-04-16T07:35:33.991Z,101190.13
2019-04-16T07:38:21.003Z,101192.06
2019-04-16T07:41:12.378Z,101195.94
2019-04-16T07:44:11.010Z,101189.81
2019-04-16T07:46:49.674Z,101194.11
2019-04-16T07:49:42.514Z,101186.15
2019-04-16T07:52:38.984Z,101176.80
2019-04-16T07:55:19.992Z,101178.42
2019-04-16T07:57:51.364Z,101182.85
2019-04-16T08:00:22.579Z,101174.50
2019-04-16T08:02:54.693Z,101173.54
2019-04-16T08:05:27.858Z,101167.16
2019-04-16T08:07:59.183Z,101167.16
2019-04-16T08:10:31.908Z,101171.67
2019-04-16T08:13:14.167Z,101157.58
2019-04-16T08:15:45.512Z,101156.63
2019-04-16T08:18:16.828Z,101146.13
2019-04-16T08:21:01.066Z,101152.72
2019-04-16T08:23:34.011Z,101151.06
2019-04-16T08:26:11.371Z,101151.72
2019-04-16T08:28:39.557Z,101149.33
2019-04-16T08:31:16.334Z,101148.63
2019-04-16T08:33:47.472Z,101142.60
2019-04-16T08:36:18.797Z,101138.56
2019-04-16T08:38:50.261Z,101136.61
2019-04-16T08:41:21.749Z,101131.89
2019-04-16T08:43:53.386Z,101137.55
2019-04-16T08:46:26.654Z,101133.72
2019-04-16T08:48:57.554Z,101145.23
2019-04-16T08:51:31.272Z,101136.06
2019-04-16T08:54:01.708Z,101136.98
2019-04-16T08:56:32.950Z,101137.97
2019-04-16T08:59:09.590Z,101140.50
2019-04-16T09:01:37.333Z,101131.39
2019-04-16T09:04:08.886Z,101126.45
2019-04-16T09:06:42.630Z,101122.91
2019-04-16T09:09:32.647Z,101121.98
2019-04-16T09:12:09.445Z,101126.25
2019-04-16T09:14:46.331Z,101125.01
2019-04-16T09:17:32.096Z,101127.02
2019-04-16T09:24:28.986Z,101127.12
2019-04-16T09:27:06.315Z,101122.50
2019-04-16T09:30:04.873Z,101123.37
2019-04-16T09:32:50.677Z,101122.56
2019-04-16T09:35:38.520Z,101116.45
2019-04-16T09:38:28.750Z,101104.87
2019-04-16T09:41:10.804Z,101101.87
2019-04-16T09:43:47.537Z,101106.23
2019-04-16T09:46:25.043Z,101102.52
2019-04-16T09:48:52.945Z,101102.28
2019-04-16T09:51:26.145Z,101094.67
2019-04-16T09:53:57.256Z,101088.33
2019-04-16T09:56:32.100Z,101093.11
2019-04-16T09:59:11.047Z,101085.56
2019-04-16T10:01:48.229Z,101084.07
2019-04-16T10:04:21.961Z,101080.67
2019-04-16T10:06:53.418Z,101079.31
2019-04-16T10:09:24.984Z,101080.42
2019-04-16T10:11:59.195Z,101079.38
2019-04-16T10:14:31.177Z,101071.87
2019-04-16T10:17:08.982Z,101080.86
2019-04-16T10:19:43.308Z,101080.94
2019-04-16T10:22:20.557Z,101073.80
2019-04-16T10:25:01.499Z,101070.41
2019-04-16T10:27:43.986Z,101079.37
2019-04-16T10:30:21.194Z,101065.95
2019-04-16T10:32:52.652Z,101067.19
2019-04-16T10:35:27.722Z,101064.48
2019-04-16T10:38:03.677Z,101052.13
2019-04-16T10:40:53.543Z,101050.48
2019-04-16T10:43:56.260Z,101047.72
2019-04-16T10:46:38.671Z,101045.33
2019-04-16T10:49:36.233Z,101038.72
2019-04-16T10:52:29.211Z,101040.36
2019-04-16T10:55:24.778Z,101035.41
2019-04-16T10:58:13.888Z,101030.45
2019-04-16T11:01:02.259Z,101028.45
2019-04-16T11:03:47.953Z,101025.83
2019-04-16T11:06:34.940Z,101023.28
2019-04-16T11:09:09.974Z,101024.88
2019-04-16T11:11:49.289Z,101022.12
2019-04-16T11:14:25.283Z,101015.41
2019-04-16T11:16:57.443Z,101014.74
2019-04-16T11:19:33.435Z,101014.15
2019-04-16T11:22:12.667Z,101021.19
2019-04-16T11:24:46.421Z,101009.40
2019-04-16T11:27:26.128Z,101012.77
2019-04-16T11:29:56.812Z,101008.64
2019-04-16T11:32:32.946Z,100997.23
2019-04-16T11:35:13.430Z,100994.19
2019-04-16T11:37:52.002Z,100993.84
2019-04-16T11:40:22.689Z,100997.05
2019-04-16T11:42:56.284Z,100996.75
2019-04-16T11:45:30.533Z,100991.76
2019-04-16T11:48:05.020Z,100993.44
2019-04-16T11:50:51.802Z,100988.45
2019-04-16T11:53:26.688Z,100990.22
2019-04-16T11:56:04.162Z,100995.17
2019-04-16T11:58:46.792Z,100995.31
2019-04-16T12:01:40.224Z,100992.65
2019-04-16T12:04:19.711Z,100985.13
2019-04-16T12:07:06.402Z,100985.08
2019-04-16T12:10:01.221Z,100982.27
2019-04-16T12:13:06.800Z,100976.75
2019-04-16T12:15:45.253Z,100989.42
2019-04-16T12:18:41.362Z,100979.90
2019-04-16T12:21:31.203Z,100970.33
2019-04-16T12:24:21.210Z,100981.89
2019-04-16T12:27:00.311Z,100980.39
2019-04-16T12:29:42.524Z,100977.72
2019-04-16T12:32:35.348Z,100976.77
2019-04-16T12:35:21.037Z,100985.25
2019-04-16T12:38:13.012Z,100989.49
2019-04-16T12:41:05.355Z,100980.67
2019-04-16T12:43:50.837Z,100978.75
2019-04-16T12:46:42.180Z,100969.73
2019-04-16T12:49:31.069Z,100973.59
2019-04-16T12:52:17.586Z,100978.23
2019-04-16T12:56:16.622Z,100978.62
2019-04-16T12:59:09.689Z,100973.53
2019-04-16T13:57:06.567Z,100925.03
2019-04-16T14:00:08.319Z,100930.31
2019-04-16T14:06:52.041Z,100926.45
2019-04-16T14:09:59.490Z,100923.14
2019-04-16T14:12:42.082Z,100917.97
2019-04-16T14:15:40.372Z,100920.20
2019-04-16T14:18:21.614Z,100915.10
2019-04-16T14:21:18.689Z,100923.95
2019-04-16T14:24:52.388Z,100917.08
2019-04-16T14:27:25.232Z,100918.70
2019-04-16T14:30:54.034Z,100916.72
2019-04-16T14:32:58.176Z,100898.52
2019-04-16T14:35:33.920Z,100903.69
2019-04-16T14:38:14.592Z,100895.89
2019-04-16T14:40:46.094Z,100906.49
2019-04-16T14:43:23.095Z,100903.72
2019-04-16T14:46:03.399Z,100905.48
2019-04-16T14:48:39.064Z,100899.28
2019-04-16T14:51:09.377Z,100903.61
2019-04-16T14:53:53.337Z,100903.27
2019-04-16T14:56:30.790Z,100896.78
2019-04-16T14:59:07.911Z,100899.20
2019-04-16T15:01:46.074Z,100898.39
2019-04-16T15:04:32.887Z,100894.27
2019-04-16T15:07:19.224Z,100911.44
2019-04-16T15:10:07.222Z,100905.75
2019-04-16T15:12:58.272Z,100906.00
2019-04-16T15:15:42.147Z,100904.98
2019-04-16T15:18:35.858Z,100906.16
2019-04-16T15:21:25.611Z,100896.68
2019-04-16T15:24:10.250Z,100900.16
2019-04-16T15:26:58.528Z,100901.34
2019-04-16T15:29:35.356Z,100897.91
2019-04-16T15:32:34.759Z,100895.70
2019-04-16T15:35:14.117Z,100897.95
2019-04-16T15:37:57.859Z,100900.68
2019-04-16T15:40:32.045Z,100903.88
2019-04-16T15:43:21.030Z,100907.87
2019-04-16T15:46:26.946Z,100903.19
2019-04-16T15:49:19.437Z,100911.03
2019-04-16T15:52:10.117Z,100913.41
2019-04-16T15:54:50.177Z,100909.81
2019-04-16T15:57:49.233Z,100910.58
2019-04-16T16:00:28.746Z,100916.14
2019-04-16T16:03:20.642Z,100913.68
2019-04-16T16:06:07.300Z,100912.81
2019-04-16T16:08:43.915Z,100918.87
2019-04-16T16:11:39.375Z,100925.09
2019-04-16T16:14:14.319Z,100918.98
2019-04-16T16:16:50.707Z,100927.55
2019-04-16T16:19:25.789Z,100926.94
2019-04-16T16:22:11.059Z,100925.41
2019-04-16T16:24:42.445Z,100929.97
2019-04-16T16:27:46.840Z,100932.83
2019-04-16T16:32:40.325Z,100931.42
2019-04-16T16:34:47.447Z,100937.11
2019-04-16T16:37:50.181Z,100940.18
2019-04-16T16:40:54.886Z,100937.34
2019-04-16T16:43:29.361Z,100941.32
2019-04-16T16:46:31.134Z,100942.05
2019-04-16T16:49:09.237Z,100947.84
2019-04-16T16:51:50.351Z,100948.48
2019-04-16T16:54:32.147Z,100952.07
2019-04-16T16:57:26.053Z,100956.86
2019-04-16T17:00:16.161Z,100957.11
2019-04-16T17:02:57.310Z,100956.47
2019-04-16T17:06:33.451Z,100955.70
2019-04-16T17:09:05.791Z,100959.66
2019-04-16T17:11:36.965Z,100963.00
2019-04-16T17:14:08.570Z,100965.95
2019-04-16T17:16:41.912Z,100970.21
2019-04-16T17:19:13.304Z,100971.19
2019-04-16T17:21:44.482Z,100976.22
2019-04-16T17:24:42.545Z,100973.12
2019-04-16T17:27:17.731Z,100977.86
2019-04-16T17:29:49.837Z,100981.53
2019-04-16T17:32:21.913Z,100984.49
2019-04-16T17:34:53.648Z,100990.81
2019-04-16T17:37:28.045Z,100987.57
2019-04-16T17:40:02.501Z,100991.41
2019-04-16T17:42:37.623Z,100998.77
2019-04-16T17:45:27.130Z,100997.27
2019-04-16T17:48:13.654Z,100998.23
2019-04-16T17:51:02.644Z,100998.48
2019-04-16T17:56:41.426Z,101008.59
2019-04-16T17:59:19.360Z,101006.84
2019-04-16T18:02:15.046Z,101014.38
2019-04-16T18:05:00.847Z,101017.14
2019-04-16T18:10:37.784Z,101028.70
2019-04-16T18:13:34.547Z,101030.65
2019-04-16T18:16:16.793Z,101037.20
2019-04-16T18:19:05.129Z,101037.84
2019-04-16T18:22:04.396Z,101046.44
2019-04-16T18:24:45.097Z,101046.84
2019-04-16T18:27:50.490Z,101051.11
2019-04-16T18:30:37.327Z,101062.50
2019-04-16T18:33:15.646Z,101065.30
2019-04-16T18:35:56.674Z,101068.80
2019-04-16T18:38:47.460Z,101067.05
2019-04-16T18:41:50.319Z,101072.08
2019-04-16T18:44:39.810Z,101076.79
2019-04-16T18:47:29.365Z,101080.23
2019-04-16T18:50:02.829Z,101084.64
2019-04-16T18:52:36.614Z,101091.79
2019-04-16T18:55:08.542Z,101107.84
2019-04-16T18:57:41.070Z,101109.55
2019-04-16T19:00:33.198Z,101116.08
2019-04-16T19:03:14.657Z,101113.58
2019-04-16T19:05:44.085Z,101129.80
2019-04-16T19:08:17.248Z,101143.50
2019-04-16T19:10:51.506Z,101169.76
2019-04-16T19:13:22.941Z,101174.52
2019-04-16T19:15:55.111Z,101178.41
2019-04-16T19:18:29.007Z,101175.98
2019-04-16T19:21:03.211Z,101182.08
2019-04-16T19:23:35.189Z,101188.48
2019-04-16T19:26:07.064Z,101194.09
2019-04-16T19:28:40.320Z,101197.77
2019-04-16T19:31:13.649Z,101211.20
2019-04-16T19:33:46.188Z,101211.15
2019-04-16T19:36:24.965Z,101212.80
2019-04-16T19:38:55.125Z,101212.61
2019-04-16T19:41:31.763Z,101215.97
2019-04-16T19:44:06.365Z,101223.95
2019-04-16T19:46:38.909Z,101227.59
2019-04-16T19:49:10.557Z,101230.48
2019-04-16T19:51:42.168Z,101228.92
2019-04-16T19:54:13.815Z,101229.09
2019-04-16T19:56:51.127Z,101235.87
2019-04-16T19:59:18.973Z,101235.99
2019-04-16T20:02:01.752Z,101241.09
2019-04-16T20:04:54.551Z,101246.23
2019-04-16T20:07:38.024Z,101243.70
2019-04-16T20:10:34.971Z,101245.78
2019-04-16T20:14:02.682Z,101246.89
2019-04-16T20:16:34.808Z,101259.09
2019-04-16T20:19:22.118Z,101259.00
2019-04-16T20:21:54.947Z,101259.06
2019-04-16T20:24:27.429Z,101266.16
2019-04-16T20:26:58.524Z,101266.45
2019-04-16T20:29:29.710Z,101270.97
2019-04-16T20:32:06.866Z,101280.64
2019-04-16T20:34:38.057Z,101287.55
2019-04-16T20:37:09.211Z,101291.69
2019-04-16T20:39:42.804Z,101287.16
2019-04-16T20:42:15.817Z,101294.32
2019-04-16T20:44:48.535Z,101287.30
2019-04-16T20:47:19.673Z,101291.98
2019-04-16T20:49:50.977Z,101289.92
2019-04-16T20:52:22.159Z,101287.87
2019-04-16T20:54:54.544Z,101289.77
2019-04-16T20:57:26.488Z,101291.23
2019-04-16T21:00:00.393Z,101296.48
2019-04-16T21:02:33.319Z,101303.42
2019-04-16T21:05:04.982Z,101302.86
2019-04-16T21:07:43.962Z,101304.77
2019-04-16T21:10:19.140Z,101309.78
2019-04-16T21:15:57.179Z,101323.04
2019-04-16T21:18:27.844Z,101320.91
2019-04-16T21:21:27.239Z,101325.09
2019-04-16T21:24:19.261Z,101321.58
2019-04-16T21:26:57.285Z,101325.33
2019-04-16T21:29:53.178Z,101327.14
2019-04-16T21:35:56.624Z,101336.65
2019-04-16T21:41:25.577Z,101328.56
2019-04-16T21:43:57.994Z,101329.85
2019-04-16T21:46:58.329Z,101334.83
2019-04-16T21:49:38.720Z,101341.55
2019-04-16T21:52:27.267Z,101338.34
2019-04-16T21:55:03.017Z,101344.69
2019-04-16T21:57:31.262Z,101343.20
2019-04-16T22:00:03.369Z,101343.61
2019-04-16T22:02:37.990Z,101346.06
2019-04-16T22:05:10.591Z,101340.74
2019-04-16T22:07:41.847Z,101350.21
2019-04-16T22:10:12.907Z,101352.24
2019-04-16T22:12:47.595Z,101347.00
2019-04-16T22:15:18.139Z,101337.56
2019-04-16T22:17:49.418Z,101339.31
2019-04-16T22:20:20.486Z,101337.41
2019-04-16T22:22:51.680Z,101344.30
2019-04-16T22:25:23.795Z,101347.73
2019-04-16T22:27:55.855Z,101354.73
2019-04-16T22:30:27.560Z,101358.98
2019-04-16T22:32:58.759Z,101357.27
2019-04-16T22:35:32.639Z,101366.33
2019-04-16T22:38:03.844Z,101365.89
2019-04-16T22:40:51.697Z,101364.91
2019-04-16T22:43:42.715Z,101360.34
2019-04-16T22:46:20.089Z,101366.20
2019-04-16T22:49:01.756Z,101361.28
2019-04-16T22:51:32.976Z,101363.09
2019-04-16T22:54:04.088Z,101357.70
2019-04-16T22:56:46.323Z,101364.55
2019-04-16T22:59:20.167Z,101362.41
2019-04-16T23:01:53.418Z,101363.28
2019-04-16T23:04:26.156Z,101360.92
2019-04-16T23:06:56.953Z,101366.58
2019-04-16T23:09:29.934Z,101361.28
2019-04-16T23:12:01.068Z,101362.81
2019-04-16T23:14:34.953Z,101370.22
2019-04-16T23:17:05.463Z,101367.30
2019-04-16T23:19:36.860Z,101369.53
2019-04-16T23:22:14.239Z,101369.77
2019-04-16T23:24:43.931Z,101371.36
2019-04-16T23:27:15.016Z,101369.98
2019-04-16T23:29:47.630Z,101369.29
2019-04-16T23:32:19.005Z,101371.70
2019-04-16T23:34:50.279Z,101374.38
2019-04-16T23:37:23.411Z,101376.66
2019-04-16T23:39:54.023Z,101373.60
2019-04-16T23:42:25.061Z,101373.84
2019-04-16T23:45:33.108Z,101378.86
2019-04-16T23:48:21.409Z,101385.30
2019-04-16T23:51:01.451Z,101382.56
2019-04-16T23:54:00.575Z,101375.75
2019-04-16T23:56:49.697Z,101379.91
2019-04-16T23:59:35.739Z,101380.56
